KJAX METAR and TAF | Updated Today

KJAX METAR

Jacksonville International Airport

Observation time: 32 min. ago

KJAX 301656Z 04004KT 10SM CLR 17/05 A3021 RMK AO2 SLP231 T01720050

Need help? Read our tutorial on how to read METARs or read the parsed version below.

Jacksonville International Airport (KJAX) METAR

  • Weather conditions on Tue, 30 Nov 2021 16:56:00 +0000 (32 min. ago):
  • Present conditions: Dry
  • Clouds: Clear skies
  • Visibility: 16093 meters
  • Wind: 40 degrees at 4 knots
  • Temperature: 17 celsius
  • Dew point: 5 celsius
  • Pressure: 30.21 inHg
  • Remarks: AO2 SLP231 T01720050


Useful to know...

KJAX TAF

Jacksonville International Airport

KJAX 301120Z 3012/0112 VRB04KT P6SM SKC
Observation time: 6:08 hr. ago
Need help? Read our tutorial on how to read TAFs or read the parsed version below.

Parsed version of TAF for Jacksonville International Airport (KJAX)

  • From 30 November at 12:00 UTC, to day 01 of the month at 12:00 UTC
  • Clouds: No significant changes expected
  • Wind: Variable at 4